Time;durP1;ratioP1;P1;durP2;ratioP2;P2;SDS_P1;SDS_P2;PMS_P1;PMS_P2;Temp;Humidity;BMP_temperature;BMP_pressure;BME280_temperature;BME280_humidity;BME280_pressure;Samples;Min_cycle;Max_cycle;Signal;HPM_P1;HPM_P2
2023/12/19 00:00:50;;;;;;;32.80;29.60;;;;;;;0.38;98.49;99234.41;5080596;28;20298;-72
2023/12/19 00:05:51;;;;;;;31.10;27.95;;;;;;;0.62;98.83;99248.69;5079422;28;20193;-72
2023/12/19 00:08:18;;;;;;;30.75;27.58;;;;;;;0.65;99.07;99251.13;5082563;28;20240;-71
2023/12/19 00:10:45;;;;;;;33.10;29.40;;;;;;;0.72;98.17;99243.50;5080687;28;20281;-72
2023/12/19 00:13:11;;;;;;;31.75;28.65;;;;;;;0.46;98.73;99238.25;5081125;28;20264;-72
2023/12/19 00:15:38;;;;;;;30.63;27.38;;;;;;;0.47;98.84;99239.94;5080273;28;20262;-72
2023/12/19 00:18:06;;;;;;;30.92;27.73;;;;;;;0.38;99.16;99235.28;5081319;28;20606;-72
2023/12/19 00:20:33;;;;;;;31.30;28.02;;;;;;;0.36;99.23;99231.88;5081012;28;20655;-72
2023/12/19 00:22:59;;;;;;;31.13;27.92;;;;;;;0.31;99.50;99221.56;5082083;28;20300;-72
2023/12/19 00:25:26;;;;;;;30.52;27.33;;;;;;;0.28;99.28;99218.28;5082478;28;20235;-72
2023/12/19 00:27:53;;;;;;;30.88;27.70;;;;;;;0.33;99.17;99208.13;5080399;28;20219;-72
2023/12/19 00:30:19;;;;;;;31.23;28.08;;;;;;;0.28;99.25;99191.66;5079983;28;20278;-73
2023/12/19 00:32:46;;;;;;;31.02;27.90;;;;;;;0.28;99.04;99181.84;5082226;28;20208;-73
2023/12/19 00:35:14;;;;;;;30.98;27.88;;;;;;;0.24;98.86;99179.50;5080067;28;20208;-73
2023/12/19 00:37:41;;;;;;;30.60;26.85;;;;;;;0.18;99.13;99174.63;5081441;28;20196;-73
2023/12/19 00:40:11;;;;;;;29.70;26.70;;;;;;;0.19;98.79;99181.66;5082467;28;20204;-73
2023/12/19 00:42:38;;;;;;;30.35;27.20;;;;;;;0.23;98.71;99184.00;5083469;28;20295;-72
2023/12/19 00:45:05;;;;;;;31.45;28.20;;;;;;;0.15;98.54;99198.78;5115820;27;20289;-72
2023/12/19 00:47:32;;;;;;;31.45;28.33;;;;;;;0.31;98.33;99197.63;5079235;28;20215;-72
2023/12/19 00:49:58;;;;;;;29.15;26.13;;;;;;;0.32;98.17;99198.47;5081838;28;20208;-72
2023/12/19 00:52:27;;;;;;;29.95;26.85;;;;;;;0.42;98.11;99196.81;5079757;28;20281;-72
2023/12/19 00:54:54;;;;;;;28.08;25.25;;;;;;;0.16;97.91;99160.56;5079591;28;20231;-72
2023/12/19 00:57:20;;;;;;;30.50;27.33;;;;;;;0.32;97.90;99182.50;5081074;28;20201;-72
2023/12/19 00:59:47;;;;;;;29.27;26.30;;;;;;;0.31;97.90;99175.47;5081336;28;20278;-71
2023/12/19 01:02:13;;;;;;;28.33;25.38;;;;;;;0.26;97.78;99172.28;5079543;28;20224;-72
2023/12/19 01:04:40;;;;;;;27.42;24.58;;;;;;;0.15;98.69;99174.84;5080850;28;20235;-72
2023/12/19 01:07:06;;;;;;;29.60;25.73;;;;;;;0.23;98.77;99173.34;5081679;28;20316;-73
2023/12/19 01:09:34;;;;;;;28.83;26.08;;;;;;;0.32;98.00;99178.00;5080299;28;20210;-72
2023/12/19 01:12:01;;;;;;;28.30;24.95;;;;;;;0.34;97.66;99181.38;5078970;28;20254;-72
2023/12/19 01:14:28;;;;;;;24.80;22.35;;;;;;;0.70;96.74;99176.19;5078359;28;20425;-72
2023/12/19 01:16:54;;;;;;;24.45;22.15;;;;;;;0.84;95.36;99178.69;5088681;28;20287;-72
2023/12/19 01:19:21;;;;;;;26.25;23.65;;;;;;;0.83;95.22;99190.31;5115597;27;20283;-72
2023/12/19 01:21:47;;;;;;;25.08;22.42;;;;;;;0.98;94.99;99183.84;5080025;28;20774;-72
2023/12/19 01:24:14;;;;;;;23.23;20.77;;;;;;;1.08;93.31;99186.69;5079773;28;20196;-72
2023/12/19 01:26:42;;;;;;;22.20;19.98;;;;;;;0.95;92.83;99192.09;5080201;28;20227;-73
2023/12/19 01:29:08;;;;;;;22.48;20.27;;;;;;;0.73;92.66;99194.59;5078102;28;20642;-72
2023/12/19 01:31:37;;;;;;;21.63;19.55;;;;;;;0.84;92.04;99200.00;5080580;28;20210;-73
2023/12/19 01:34:03;;;;;;;21.08;19.08;;;;;;;0.71;92.75;99200.03;5080651;28;20292;-73
2023/12/19 01:36:30;;;;;;;20.30;18.40;;;;;;;0.79;92.89;99207.47;5112458;27;20662;-72
2023/12/19 01:38:57;;;;;;;21.63;19.35;;;;;;;0.66;93.02;99208.34;5080960;28;20239;-72
2023/12/19 01:41:23;;;;;;;20.88;18.73;;;;;;;0.89;93.28;99213.84;5079256;28;20299;-72
2023/12/19 01:43:51;;;;;;;21.17;19.17;;;;;;;0.96;92.97;99201.78;5078477;28;20675;-72
2023/12/19 01:46:18;;;;;;;19.98;18.00;;;;;;;0.97;93.49;99200.81;5079655;28;20343;-73
2023/12/19 01:48:45;;;;;;;19.67;17.77;;;;;;;1.03;93.45;99197.69;5079547;28;20200;-73
2023/12/19 01:51:12;;;;;;;19.35;17.48;;;;;;;1.08;92.86;99198.19;5080016;28;20208;-72
2023/12/19 01:53:39;;;;;;;19.65;17.60;;;;;;;1.15;92.69;99196.78;5077406;28;20216;-72
2023/12/19 01:56:06;;;;;;;18.58;16.65;;;;;;;1.11;92.48;99197.13;5078098;28;20204;-73
2023/12/19 01:58:34;;;;;;;16.88;15.25;;;;;;;1.22;91.52;99200.69;5079448;28;20343;-72
2023/12/19 02:01:03;;;;;;;15.30;13.90;;;;;;;1.09;91.91;99199.03;5079335;28;20760;-72
2023/12/19 02:03:30;;;;;;;18.02;15.35;;;;;;;1.11;91.93;99197.13;5078747;28;20294;-72
2023/12/19 02:05:58;;;;;;;15.80;14.30;;;;;;;1.27;90.69;99195.88;5080420;28;20207;-71
2023/12/19 02:08:25;;;;;;;14.30;12.90;;;;;;;1.26;90.74;99207.50;5077214;28;20208;-71
2023/12/19 02:10:51;;;;;;;16.55;14.00;;;;;;;1.35;90.17;99193.44;5081163;28;20220;-72
2023/12/19 02:13:19;;;;;;;15.23;13.35;;;;;;;1.24;90.04;99192.56;5079697;28;20296;-73
2023/12/19 02:15:46;;;;;;;15.45;13.95;;;;;;;1.23;90.13;99194.41;5060649;28;20218;-72
2023/12/19 02:18:18;;;;;;;16.23;14.57;;;;;;;1.25;89.88;99200.47;5079053;28;20288;-72
2023/12/19 02:20:44;;;;;;;14.73;13.25;;;;;;;1.21;89.62;99191.00;5079077;28;20239;-72
2023/12/19 02:23:13;;;;;;;13.38;12.18;;;;;;;1.19;89.36;99184.91;5077603;28;20262;-72
2023/12/19 02:25:40;;;;;;;15.45;13.90;;;;;;;1.16;89.51;99173.63;5078515;28;20199;-72
2023/12/19 02:28:06;;;;;;;16.55;14.48;;;;;;;0.95;90.22;99184.09;5077416;28;20279;-72
2023/12/19 02:30:34;;;;;;;16.05;14.45;;;;;;;0.84;90.92;99178.69;5080065;28;20666;-72
2023/12/19 02:33:01;;;;;;;16.38;14.73;;;;;;;0.98;90.57;99175.84;5078218;28;20211;-71
2023/12/19 02:35:28;;;;;;;15.68;14.27;;;;;;;0.93;90.06;99162.03;5079088;28;20287;-72
2023/12/19 02:37:54;;;;;;;16.75;15.07;;;;;;;0.82;90.23;99154.81;5078723;28;20291;-72
2023/12/19 02:40:22;;;;;;;18.27;16.00;;;;;;;0.81;90.61;99152.28;5078581;28;20624;-72
2023/12/19 02:42:49;;;;;;;16.25;14.50;;;;;;;0.81;90.89;99160.25;5079158;28;20219;-72
2023/12/19 02:45:16;;;;;;;17.70;15.93;;;;;;;1.03;89.85;99171.03;5078508;28;20228;-72
2023/12/19 02:47:43;;;;;;;15.57;13.95;;;;;;;0.86;89.42;99128.81;5077289;28;20621;-72
2023/12/19 02:50:10;;;;;;;16.30;14.77;;;;;;;1.09;88.90;99161.72;5078891;28;20279;-72
2023/12/19 02:52:36;;;;;;;16.95;15.23;;;;;;;0.96;89.88;99165.31;5079533;28;20282;-72
2023/12/19 02:55:04;;;;;;;15.60;14.00;;;;;;;1.09;89.13;99173.25;5082051;28;20729;-72
2023/12/19 02:57:32;;;;;;;14.30;13.05;;;;;;;1.09;88.52;99157.25;5080524;28;20269;-73
2023/12/19 02:59:59;;;;;;;16.38;14.70;;;;;;;1.10;88.49;99163.44;5078698;28;21115;-71
2023/12/19 03:02:26;;;;;;;14.15;12.95;;;;;;;1.10;88.46;99158.94;5079418;28;20242;-72
2023/12/19 03:04:53;;;;;;;16.27;14.65;;;;;;;1.28;87.81;99152.25;5077967;28;20295;-71
2023/12/19 03:07:19;;;;;;;13.68;12.27;;;;;;;1.24;87.10;99155.25;5079520;28;20240;-72
2023/12/19 03:09:46;;;;;;;14.25;12.90;;;;;;;1.25;86.98;99147.13;5077943;28;20324;-72
2023/12/19 03:12:12;;;;;;;14.10;12.73;;;;;;;1.11;87.16;99154.47;5078258;28;20234;-72
2023/12/19 03:14:40;;;;;;;14.82;13.40;;;;;;;1.17;87.14;99138.88;5077064;28;20291;-71
2023/12/19 03:17:07;;;;;;;12.77;11.48;;;;;;;1.28;86.58;99140.72;5078541;28;20601;-71
2023/12/19 03:19:34;;;;;;;12.88;11.63;;;;;;;1.45;85.59;99150.09;5078166;28;20294;-71
2023/12/19 03:22:01;;;;;;;10.07;9.27;;;;;;;1.62;83.65;99145.19;5107176;27;20232;-71
2023/12/19 03:24:30;;;;;;;12.57;11.27;;;;;;;1.63;84.48;99130.00;5077653;28;21201;-71
2023/12/19 03:26:56;;;;;;;12.13;10.63;;;;;;;1.59;84.45;99123.22;5076899;28;20215;-72
2023/12/19 03:29:23;;;;;;;11.82;10.73;;;;;;;1.53;84.59;99116.53;5076966;28;20672;-72
2023/12/19 03:31:51;;;;;;;14.38;12.93;;;;;;;1.48;84.49;99105.38;5077643;28;20560;-72
2023/12/19 03:34:17;;;;;;;15.38;13.80;;;;;;;1.11;85.70;99114.47;5077600;28;20376;-71
2023/12/19 03:36:44;;;;;;;14.73;13.23;;;;;;;1.12;86.17;99114.38;5078867;28;20242;-72
2023/12/19 03:39:11;;;;;;;15.68;13.90;;;;;;;1.15;86.30;99119.47;5081311;28;20281;-72
2023/12/19 03:41:37;;;;;;;15.70;13.60;;;;;;;1.05;86.68;99118.47;5079718;28;20315;-72
2023/12/19 03:44:04;;;;;;;15.82;13.80;;;;;;;1.11;86.86;99131.31;5115596;27;20207;-72
2023/12/19 03:46:31;;;;;;;13.05;11.68;;;;;;;1.22;86.17;99128.72;5081490;28;20240;-72
2023/12/19 03:48:59;;;;;;;14.00;12.20;;;;;;;1.05;85.48;99117.59;5084151;28;20271;-72
2023/12/19 03:51:26;;;;;;;13.77;12.10;;;;;;;1.18;86.24;99119.25;5080152;28;20232;-72
2023/12/19 03:53:52;;;;;;;14.10;12.68;;;;;;;1.23;86.09;99101.09;5082373;28;20727;-72
2023/12/19 03:56:19;;;;;;;12.23;11.15;;;;;;;1.22;85.94;99104.72;5082068;28;20216;-71
2023/12/19 03:58:46;;;;;;;14.05;12.65;;;;;;;1.14;85.99;99090.25;5100325;28;20229;-72
2023/12/19 04:01:12;;;;;;;14.40;12.95;;;;;;;0.98;86.81;99087.91;5095615;28;20622;-71
2023/12/19 04:03:39;;;;;;;15.40;13.90;;;;;;;0.50;88.04;99092.44;5077687;28;20292;-72
2023/12/19 04:06:07;;;;;;;15.32;13.55;;;;;;;0.43;88.59;99108.00;5080658;28;20687;-71
2023/12/19 04:08:34;;;;;;;16.95;14.60;;;;;;;0.43;88.83;99093.84;5078277;28;20228;-72
2023/12/19 04:11:00;;;;;;;15.88;14.30;;;;;;;0.53;88.09;99085.06;5080907;28;20279;-72
2023/12/19 04:13:27;;;;;;;17.52;15.88;;;;;;;0.56;88.15;99082.19;5079219;28;20228;-71
2023/12/19 04:15:53;;;;;;;15.55;14.10;;;;;;;0.39;90.12;99081.72;5080480;28;20278;-72
2023/12/19 04:18:20;;;;;;;17.05;15.35;;;;;;;0.56;88.58;99094.63;5080559;28;20593;-71
2023/12/19 04:20:46;;;;;;;16.02;14.50;;;;;;;0.44;89.50;99088.41;5079624;28;20244;-71
2023/12/19 04:23:15;;;;;;;17.25;15.65;;;;;;;0.54;88.53;99086.75;5080509;28;20240;-71
2023/12/19 04:25:42;;;;;;;16.90;15.13;;;;;;;0.21;90.17;99074.13;5079788;28;20599;-71
2023/12/19 04:28:08;;;;;;;17.45;15.30;;;;;;;0.27;90.42;99088.78;5080739;28;20215;-71
2023/12/19 04:30:36;;;;;;;16.45;14.82;;;;;;;0.34;90.40;99090.03;5076643;28;20291;-72
2023/12/19 04:33:03;;;;;;;16.20;14.60;;;;;;;0.14;91.38;99078.19;5080485;28;20253;-72
2023/12/19 04:35:29;;;;;;;20.55;16.05;;;;;;;0.23;90.84;99074.84;5081919;28;20210;-72
2023/12/19 04:37:56;;;;;;;18.02;16.00;;;;;;;0.34;90.00;99071.38;5112172;27;20236;-72
2023/12/19 04:40:24;;;;;;;16.08;14.57;;;;;;;0.38;90.52;99086.19;5081526;28;20298;-72
2023/12/19 04:42:50;;;;;;;16.40;14.70;;;;;;;0.31;89.88;99095.59;5076603;28;20255;-72
2023/12/19 04:45:17;;;;;;;16.30;14.80;;;;;;;0.17;90.70;99090.41;5089687;28;20212;-72
2023/12/19 04:47:43;;;;;;;16.35;14.65;;;;;;;0.14;90.00;99072.84;5113561;27;20231;-73
2023/12/19 04:50:10;;;;;;;15.88;14.27;;;;;;;0.27;90.24;99056.84;5079430;28;20287;-72
2023/12/19 04:52:38;;;;;;;14.55;13.20;;;;;;;0.16;91.20;99057.63;5079890;28;20280;-73
2023/12/19 04:55:06;;;;;;;16.10;14.45;;;;;;;0.20;91.36;99050.28;5113177;27;20697;-73
2023/12/19 04:57:34;;;;;;;17.60;15.75;;;;;;;0.11;91.38;99061.56;5079971;28;20743;-73
2023/12/19 05:00:01;;;;;;;18.63;15.68;;;;;;;0.06;91.09;99045.94;5079545;28;20215;-72
2023/12/19 05:02:28;;;;;;;16.23;14.80;;;;;;;0.03;90.71;99059.47;5081458;28;20327;-72
2023/12/19 05:04:54;;;;;;;16.77;15.10;;;;;;;-0.24;91.30;99050.81;5078989;28;20297;-73
2023/12/19 05:07:21;;;;;;;19.65;17.75;;;;;;;-0.32;91.82;99058.50;5079307;28;20258;-73
2023/12/19 05:09:47;;;;;;;16.05;14.40;;;;;;;-0.22;92.53;99051.56;5079365;28;20247;-71
2023/12/19 05:12:14;;;;;;;16.25;14.45;;;;;;;-0.12;91.78;99040.16;5080836;28;20204;-72
2023/12/19 05:14:42;;;;;;;17.83;16.02;;;;;;;-0.17;91.90;99047.63;5078816;28;20204;-72
2023/12/19 05:17:08;;;;;;;17.25;15.55;;;;;;;0.06;91.01;99043.28;5081591;28;20243;-72
2023/12/19 05:19:36;;;;;;;18.35;16.50;;;;;;;0.03;90.76;99037.31;5078883;28;20266;-72
2023/12/19 05:22:03;;;;;;;17.23;15.45;;;;;;;0.28;91.14;99047.91;5071967;28;20218;-72
2023/12/19 05:24:32;;;;;;;17.05;15.45;;;;;;;0.21;91.08;99051.97;5076937;28;20204;-72
2023/12/19 05:26:59;;;;;;;16.67;14.85;;;;;;;0.23;90.71;99045.56;5077208;28;20222;-74
2023/12/19 05:29:25;;;;;;;15.77;14.18;;;;;;;0.11;91.15;99041.16;5079175;28;20585;-72
2023/12/19 05:31:53;;;;;;;15.18;13.57;;;;;;;-0.07;90.43;99022.06;5075640;28;20759;-72
2023/12/19 05:34:20;;;;;;;13.27;12.05;;;;;;;0.30;90.38;99030.00;5079491;28;20204;-72
2023/12/19 05:36:47;;;;;;;13.82;12.50;;;;;;;0.44;89.27;99035.16;5077214;28;20208;-73
2023/12/19 05:39:13;;;;;;;14.25;12.93;;;;;;;0.49;89.16;99045.47;5076436;28;20227;-73
2023/12/19 05:41:40;;;;;;;12.82;11.63;;;;;;;0.26;89.40;99044.50;5109776;27;20249;-73
2023/12/19 05:44:07;;;;;;;13.23;11.93;;;;;;;0.51;88.61;99036.41;5080116;28;20321;-74
2023/12/19 05:46:34;;;;;;;13.70;12.30;;;;;;;0.26;89.20;99018.75;5060904;28;20287;-72
2023/12/19 05:49:02;;;;;;;12.93;11.68;;;;;;;0.36;88.83;99013.56;5077963;28;20203;-72
2023/12/19 05:51:29;;;;;;;14.25;12.75;;;;;;;0.36;88.98;99012.72;5075786;28;20204;-73
2023/12/19 05:53:58;;;;;;;13.90;12.50;;;;;;;0.27;88.60;99020.44;5112637;27;20289;-73
2023/12/19 05:56:25;;;;;;;13.25;11.95;;;;;;;0.18;90.23;99033.56;5077968;28;20211;-73
2023/12/19 05:58:52;;;;;;;13.93;12.55;;;;;;;0.23;89.10;99032.28;5080360;28;20295;-72
2023/12/19 06:01:18;;;;;;;13.23;12.00;;;;;;;0.15;88.57;99025.81;5081921;28;20226;-72
2023/12/19 06:03:45;;;;;;;13.30;12.02;;;;;;;0.12;88.61;99037.53;5092851;28;20314;-72
2023/12/19 06:06:15;;;;;;;12.90;11.70;;;;;;;0.17;87.97;99039.84;5079449;28;20246;-72
2023/12/19 06:08:42;;;;;;;13.15;11.30;;;;;;;0.03;88.35;99038.19;5077710;28;20714;-72
2023/12/19 06:11:09;;;;;;;12.23;11.02;;;;;;;-0.06;88.91;99039.72;5080243;28;20289;-72
2023/12/19 06:13:35;;;;;;;12.85;11.60;;;;;;;-0.08;89.17;99052.28;5080851;28;20287;-73
2023/12/19 06:16:03;;;;;;;12.13;10.93;;;;;;;-0.07;88.96;99048.66;5078102;28;20265;-73
2023/12/19 06:18:29;;;;;;;13.32;11.93;;;;;;;-0.01;88.99;99058.88;5079441;28;20232;-73
2023/12/19 06:20:56;;;;;;;13.00;11.65;;;;;;;-0.16;89.77;99049.31;5077168;28;20832;-73
2023/12/19 06:23:24;;;;;;;13.20;11.90;;;;;;;-0.18;89.33;99051.22;5078661;28;20228;-73
2023/12/19 06:25:50;;;;;;;12.93;11.73;;;;;;;-0.14;89.86;99050.06;5077083;28;20220;-73
2023/12/19 06:28:17;;;;;;;15.38;13.88;;;;;;;-0.21;90.29;99059.44;5077704;28;20287;-73
2023/12/19 06:30:44;;;;;;;16.08;14.38;;;;;;;-0.27;90.46;99059.00;5094136;28;20398;-73
2023/12/19 06:33:10;;;;;;;18.52;16.60;;;;;;;-0.21;90.75;99062.09;5076844;28;20226;-73
2023/12/19 06:35:40;;;;;;;18.80;16.77;;;;;;;-0.18;89.85;99067.19;5078405;28;20283;-73
2023/12/19 06:38:07;;;;;;;16.65;14.95;;;;;;;-0.49;91.26;99063.19;5089134;28;20212;-73
2023/12/19 06:40:36;;;;;;;17.50;15.73;;;;;;;-0.57;91.86;99065.53;5077354;28;20296;-73
2023/12/19 06:43:03;;;;;;;17.88;15.45;;;;;;;-0.56;92.29;99064.56;5078482;28;20307;-73
2023/12/19 06:45:29;;;;;;;19.85;17.75;;;;;;;-0.41;91.67;99067.97;5076428;28;20619;-73
2023/12/19 06:47:56;;;;;;;20.38;18.20;;;;;;;-0.57;91.88;99065.53;5079740;28;20677;-73
2023/12/19 06:50:24;;;;;;;20.75;18.52;;;;;;;-0.57;92.89;99059.38;5073137;28;20322;-72
2023/12/19 06:52:50;;;;;;;19.30;17.50;;;;;;;-0.35;92.36;99054.25;5079488;28;20279;-73
2023/12/19 06:55:17;;;;;;;17.33;15.57;;;;;;;-0.49;92.68;99046.41;5080515;28;20268;-72
2023/12/19 06:57:45;;;;;;;18.63;16.73;;;;;;;-0.52;92.66;99046.59;5073106;28;20214;-72
2023/12/19 07:00:13;;;;;;;18.70;16.25;;;;;;;-0.38;92.41;99043.84;5075140;28;20606;-72
2023/12/19 07:02:41;;;;;;;18.40;16.60;;;;;;;-0.35;92.15;99044.47;5077187;28;20256;-72
2023/12/19 07:05:09;;;;;;;18.27;16.42;;;;;;;-0.33;92.40;99060.31;5071462;28;21132;-72
2023/12/19 07:07:36;;;;;;;17.83;15.93;;;;;;;-0.28;92.68;99052.84;5074741;28;20218;-72
2023/12/19 07:10:04;;;;;;;16.83;14.98;;;;;;;-0.22;92.25;99044.44;5077923;28;20212;-72
2023/12/19 07:12:31;;;;;;;19.77;16.35;;;;;;;-0.31;92.34;99053.06;5080395;28;20254;-72
2023/12/19 07:15:00;;;;;;;18.98;17.15;;;;;;;-0.37;92.84;99048.19;5082288;28;20295;-72
2023/12/19 07:17:26;;;;;;;21.00;17.58;;;;;;;-0.35;92.97;99062.25;5083700;28;20534;-73
2023/12/19 07:19:54;;;;;;;17.80;15.45;;;;;;;-0.29;92.80;99055.59;5082413;28;20741;-73
2023/12/19 07:22:21;;;;;;;18.45;15.75;;;;;;;-0.19;92.66;99059.31;5071651;27;20361;-73
2023/12/19 07:24:47;;;;;;;19.83;16.73;;;;;;;-0.19;91.95;99057.50;5080492;28;20326;-73
2023/12/19 07:27:14;;;;;;;21.48;19.13;;;;;;;-0.26;92.84;99053.59;5077993;28;20298;-73
2023/12/19 07:29:40;;;;;;;19.70;17.67;;;;;;;-0.18;92.16;99051.22;5078208;28;20236;-77
2023/12/19 07:32:08;;;;;;;20.23;17.15;;;;;;;-0.29;92.05;99051.13;5117107;27;20249;-71
2023/12/19 07:34:35;;;;;;;19.63;17.48;;;;;;;-0.18;91.96;99067.19;5080770;28;20280;-72
2023/12/19 07:37:02;;;;;;;20.77;18.67;;;;;;;-0.29;91.90;99066.25;5081669;28;20305;-71
2023/12/19 07:39:29;;;;;;;22.77;18.95;;;;;;;-0.21;92.16;99064.75;5081740;28;20587;-72
2023/12/19 07:41:56;;;;;;;21.65;19.52;;;;;;;-0.15;92.56;99061.66;5080639;28;20196;-72
2023/12/19 07:44:23;;;;;;;21.63;18.55;;;;;;;-0.05;92.13;99062.72;5080901;28;20250;-73
2023/12/19 07:46:49;;;;;;;22.00;16.38;;;;;;;0.00;91.80;99060.53;5081234;28;20207;-74
2023/12/19 07:49:17;;;;;;;19.17;15.45;;;;;;;-0.04;91.66;99066.22;5080212;28;20232;-73
2023/12/19 07:51:44;;;;;;;17.90;15.80;;;;;;;-0.03;91.51;99062.59;5082193;28;20288;-74
2023/12/19 07:54:11;;;;;;;18.88;15.00;;;;;;;0.06;91.47;99061.06;5079937;28;20603;-73
2023/12/19 07:56:41;;;;;;;20.63;18.42;;;;;;;0.22;90.78;99062.50;5081834;28;20257;-73
2023/12/19 07:59:07;;;;;;;19.00;16.92;;;;;;;0.34;90.06;99058.06;5079438;28;20207;-74
2023/12/19 08:01:34;;;;;;;18.83;16.50;;;;;;;0.45;89.04;99055.47;5078195;28;20292;-73
2023/12/19 08:04:01;;;;;;;18.30;16.30;;;;;;;0.58;88.83;99066.94;5079026;28;20300;-73
2023/12/19 08:06:28;;;;;;;18.48;15.70;;;;;;;0.54;88.97;99054.81;5096011;28;20236;-73
2023/12/19 08:08:55;;;;;;;18.17;16.20;;;;;;;0.67;88.27;99060.06;5077218;28;20295;-73
2023/12/19 08:11:22;;;;;;;17.15;15.35;;;;;;;0.97;86.85;99068.44;5078981;28;20243;-73
2023/12/19 08:13:50;;;;;;;18.42;15.77;;;;;;;0.91;86.71;99057.38;5107387;28;20203;-73
2023/12/19 08:16:17;;;;;;;17.95;14.52;;;;;;;0.75;87.24;99052.34;5081009;28;20211;-73
2023/12/19 08:18:43;;;;;;;16.17;14.57;;;;;;;0.76;87.79;99061.19;5080244;28;20284;-73
2023/12/19 08:21:10;;;;;;;15.80;14.20;;;;;;;0.89;86.93;99059.31;5112127;27;20258;-73
2023/12/19 08:23:39;;;;;;;18.10;14.23;;;;;;;0.72;87.69;99059.72;5076240;28;20227;-73
2023/12/19 08:26:09;;;;;;;14.18;12.50;;;;;;;0.88;87.23;99052.28;5077007;28;20596;-73
2023/12/19 08:28:37;;;;;;;15.40;14.00;;;;;;;0.81;87.12;99051.03;5077200;28;20200;-73
2023/12/19 08:31:03;;;;;;;14.48;13.07;;;;;;;0.95;86.54;99048.19;5080072;28;20291;-75
2023/12/19 08:33:30;;;;;;;13.82;12.38;;;;;;;1.13;85.55;99051.25;5077146;28;20218;-75
2023/12/19 08:35:57;;;;;;;15.25;13.02;;;;;;;1.20;85.22;99037.31;5077282;28;20231;-76
2023/12/19 08:38:23;;;;;;;16.95;15.40;;;;;;;1.30;85.33;99030.28;5080829;28;20243;-75
2023/12/19 08:40:51;;;;;;;13.75;12.30;;;;;;;1.46;84.27;99026.44;5115378;27;20292;-75
2023/12/19 08:43:19;;;;;;;13.23;11.45;;;;;;;1.39;83.88;99010.06;5080594;28;20686;-74
2023/12/19 08:45:46;;;;;;;14.65;12.32;;;;;;;1.55;83.27;99029.25;5111924;27;20867;-74
2023/12/19 08:48:13;;;;;;;13.80;12.40;;;;;;;1.56;83.75;99030.09;5078717;28;20338;-74
2023/12/19 08:50:39;;;;;;;12.95;11.75;;;;;;;1.41;83.67;98985.94;5080658;28;20207;-74
2023/12/19 08:53:06;;;;;;;13.52;12.13;;;;;;;1.92;82.49;99027.16;5077853;28;20235;-74
2023/12/19 08:55:33;;;;;;;14.02;12.50;;;;;;;2.68;79.78;99018.19;5080444;28;20235;-75
2023/12/19 08:58:01;;;;;;;12.80;10.50;;;;;;;3.72;76.40;99011.91;5080065;28;20681;-74
2023/12/19 09:00:27;;;;;;;10.90;9.80;;;;;;;4.82;70.79;99013.50;5079118;28;20254;-75
2023/12/19 09:02:54;;;;;;;10.43;9.43;;;;;;;4.78;68.93;98997.84;5080020;28;20283;-75
2023/12/19 09:05:21;;;;;;;9.93;8.93;;;;;;;5.64;66.21;98991.44;5079630;28;20287;-75
2023/12/19 09:07:48;;;;;;;9.40;8.60;;;;;;;6.28;63.93;98977.13;5076315;28;20231;-75
2023/12/19 09:10:16;;;;;;;9.60;8.70;;;;;;;6.73;62.01;98990.50;5078730;28;20235;-74
2023/12/19 09:12:43;;;;;;;8.88;8.07;;;;;;;7.28;60.52;98977.66;5095386;28;20246;-74
2023/12/19 09:15:12;;;;;;;9.30;8.48;;;;;;;7.93;57.56;98980.69;5113932;27;20228;-75
2023/12/19 09:17:39;;;;;;;10.10;8.93;;;;;;;8.20;56.59;98981.47;5085103;28;20303;-74
2023/12/19 09:20:07;;;;;;;9.25;8.45;;;;;;;8.88;54.45;98990.22;5096225;28;20240;-75
2023/12/19 09:22:34;;;;;;;8.98;8.15;;;;;;;9.43;52.84;98974.13;5113024;27;20195;-75
2023/12/19 09:25:01;;;;;;;8.90;8.10;;;;;;;8.97;54.03;98966.78;5076026;28;20227;-75
2023/12/19 09:27:27;;;;;;;9.07;8.30;;;;;;;9.29;52.67;98957.78;5075741;28;20219;-75
2023/12/19 09:29:54;;;;;;;9.50;8.70;;;;;;;9.70;51.38;98963.94;5074451;28;20196;-74
2023/12/19 09:32:22;;;;;;;9.38;8.57;;;;;;;10.02;51.59;98949.47;5078563;28;20732;-75
2023/12/19 09:34:49;;;;;;;9.33;8.53;;;;;;;10.19;50.31;98912.34;5074260;28;20609;-75
2023/12/19 09:37:16;;;;;;;9.70;8.90;;;;;;;8.82;51.82;98958.50;5107345;27;20736;-74
2023/12/19 09:39:46;;;;;;;9.10;8.30;;;;;;;9.31;52.34;98956.63;5079049;28;20665;-78
2023/12/19 09:42:17;;;;;;;9.48;8.55;;;;;;;8.57;53.72;98976.53;5075367;28;20694;-75
2023/12/19 09:44:43;;;;;;;9.95;8.95;;;;;;;7.82;56.06;98977.44;5078414;28;20220;-74
2023/12/19 09:47:11;;;;;;;9.57;8.57;;;;;;;7.82;56.07;98970.19;5080264;28;20283;-76
2023/12/19 09:49:40;;;;;;;9.80;8.90;;;;;;;6.57;61.21;98975.06;5077733;28;20212;-76
2023/12/19 09:52:08;;;;;;;9.15;8.35;;;;;;;6.22;61.37;98981.25;5076439;28;20286;-76
2023/12/19 09:54:35;;;;;;;11.18;10.18;;;;;;;5.96;62.06;98988.34;5112878;27;20291;-75
2023/12/19 09:57:02;;;;;;;10.98;9.98;;;;;;;6.15;65.95;98988.25;5083918;28;20208;-79
2023/12/19 09:59:29;;;;;;;9.35;8.50;;;;;;;6.33;66.79;98972.97;5088732;28;20744;-81
2023/12/19 10:01:57;;;;;;;10.20;9.20;;;;;;;5.13;65.70;98968.56;5082526;28;20713;-80
2023/12/19 10:04:25;;;;;;;11.30;10.30;;;;;;;4.63;67.01;98962.56;5080799;28;20263;-77
2023/12/19 10:06:57;;;;;;;10.63;9.63;;;;;;;4.09;69.07;98952.38;5080038;28;20243;-77
2023/12/19 10:09:23;;;;;;;9.45;8.65;;;;;;;3.73;70.42;98954.72;5079767;28;20295;-77
2023/12/19 10:12:04;;;;;;;10.70;9.63;;;;;;;3.47;72.00;98940.13;5078479;28;20724;-79
2023/12/19 10:14:32;;;;;;;10.35;9.35;;;;;;;3.38;71.84;98947.97;5080249;28;20677;-75
2023/12/19 10:16:59;;;;;;;10.88;9.65;;;;;;;3.09;73.23;98951.47;5081168;28;20592;-76
2023/12/19 10:19:27;;;;;;;10.80;9.75;;;;;;;2.95;73.73;98963.34;5080338;28;20293;-75
2023/12/19 10:22:05;;;;;;;11.20;10.10;;;;;;;2.97;74.04;98970.25;5078399;28;20629;-75
2023/12/19 10:24:32;;;;;;;11.88;10.63;;;;;;;2.33;75.69;98916.09;5080324;28;20239;-75
2023/12/19 10:26:59;;;;;;;11.82;10.63;;;;;;;2.61;76.24;98965.38;5093840;28;20203;-76
2023/12/19 10:29:28;;;;;;;11.63;10.52;;;;;;;2.47;76.95;98957.69;5078151;28;20212;-77
2023/12/19 10:31:55;;;;;;;14.40;12.75;;;;;;;2.27;77.40;98954.00;5079626;28;20208;-74
2023/12/19 10:34:22;;;;;;;13.65;12.18;;;;;;;1.86;78.44;98914.72;5084128;28;20204;-79
2023/12/19 10:36:52;;;;;;;14.07;11.75;;;;;;;2.25;78.67;98931.94;5080907;28;20207;-76
2023/12/19 10:39:20;;;;;;;13.10;11.80;;;;;;;2.44;77.50;98924.06;5082646;28;20568;-76
2023/12/19 10:41:46;;;;;;;12.63;11.40;;;;;;;2.51;77.28;98919.91;5072828;28;20200;-77
2023/12/19 10:44:14;;;;;;;11.70;10.50;;;;;;;2.64;77.00;98920.53;5095426;28;20220;-75
2023/12/19 10:46:42;;;;;;;12.13;10.45;;;;;;;2.62;76.51;98913.63;5088008;28;20231;-79
2023/12/19 10:49:09;;;;;;;12.95;11.20;;;;;;;2.62;76.42;98917.16;5099618;28;20256;-79
2023/12/19 10:51:41;;;;;;;10.30;9.18;;;;;;;2.85;75.89;98896.50;5062099;28;20219;-79
2023/12/19 10:54:09;;;;;;;11.55;9.73;;;;;;;3.09;74.97;98906.88;5082438;28;20279;-80
2023/12/19 10:56:53;;;;;;;10.55;9.48;;;;;;;3.73;73.34;98895.81;5095617;28;20242;-76
2023/12/19 10:59:28;;;;;;;9.85;8.95;;;;;;;3.96;71.13;98894.56;5078742;28;20695;-76
2023/12/19 11:01:59;;;;;;;10.18;9.18;;;;;;;4.40;69.35;98881.63;5077526;28;20231;-76
2023/12/19 11:04:27;;;;;;;9.35;8.43;;;;;;;4.67;68.42;98887.06;5080645;28;20305;-76
2023/12/19 11:06:56;;;;;;;8.77;7.97;;;;;;;5.45;66.22;98874.25;5078754;28;20296;-76
2023/12/19 11:09:26;;;;;;;8.27;7.57;;;;;;;5.42;65.02;98884.44;5078489;28;20251;-76
2023/12/19 11:11:54;;;;;;;8.80;7.90;;;;;;;5.96;63.52;98873.66;5083824;28;20204;-76
2023/12/19 11:14:23;;;;;;;9.88;9.02;;;;;;;6.54;61.95;98859.72;5076261;28;20284;-76
2023/12/19 11:16:54;;;;;;;9.27;8.43;;;;;;;6.43;61.40;98869.91;5076404;28;20211;-76
2023/12/19 11:19:25;;;;;;;7.15;6.55;;;;;;;7.77;61.06;98851.31;5084537;28;20287;-77
2023/12/19 11:21:56;;;;;;;8.80;8.00;;;;;;;7.51;58.20;98847.81;5085857;28;20693;-77
2023/12/19 11:24:27;;;;;;;7.93;7.20;;;;;;;7.80;57.29;98848.25;5080000;28;20279;-78
2023/12/19 11:27:00;;;;;;;8.80;8.00;;;;;;;8.05;55.44;98844.63;5110666;28;20306;-79
2023/12/19 11:29:46;;;;;;;9.70;8.80;;;;;;;7.32;57.73;98847.09;5087434;28;20193;-77